sensor_id;sensor_type;location;lat;lon;timestamp;P1;durP1;ratioP1;P2;durP2;ratioP2
19183;SDS011;9724;51.194;6.856;2023-08-06T00:00:52;5.70;;;3.20;;
19183;SDS011;9724;51.194;6.856;2023-08-06T00:03:19;8.83;;;2.70;;
19183;SDS011;9724;51.194;6.856;2023-08-06T00:05:45;3.93;;;3.20;;
19183;SDS011;9724;51.194;6.856;2023-08-06T00:08:11;4.50;;;3.03;;
19183;SDS011;9724;51.194;6.856;2023-08-06T00:10:39;2.80;;;2.70;;
19183;SDS011;9724;51.194;6.856;2023-08-06T00:13:06;4.13;;;3.00;;
19183;SDS011;9724;51.194;6.856;2023-08-06T00:15:32;3.63;;;2.80;;
19183;SDS011;9724;51.194;6.856;2023-08-06T00:17:59;7.90;;;2.70;;
19183;SDS011;9724;51.194;6.856;2023-08-06T00:20:25;4.73;;;2.90;;
19183;SDS011;9724;51.194;6.856;2023-08-06T00:22:51;6.40;;;3.03;;
19183;SDS011;9724;51.194;6.856;2023-08-06T00:25:18;3.57;;;2.77;;
19183;SDS011;9724;51.194;6.856;2023-08-06T00:27:45;4.43;;;2.80;;
19183;SDS011;9724;51.194;6.856;2023-08-06T00:30:12;3.40;;;3.10;;
19183;SDS011;9724;51.194;6.856;2023-08-06T00:32:38;2.83;;;2.63;;
19183;SDS011;9724;51.194;6.856;2023-08-06T00:35:05;7.40;;;2.90;;
19183;SDS011;9724;51.194;6.856;2023-08-06T00:37:32;2.90;;;2.70;;
19183;SDS011;9724;51.194;6.856;2023-08-06T00:39:58;6.30;;;3.03;;
19183;SDS011;9724;51.194;6.856;2023-08-06T00:42:24;4.27;;;3.10;;
19183;SDS011;9724;51.194;6.856;2023-08-06T00:44:51;5.60;;;3.13;;
19183;SDS011;9724;51.194;6.856;2023-08-06T00:47:17;4.13;;;2.90;;
19183;SDS011;9724;51.194;6.856;2023-08-06T00:49:44;6.63;;;3.27;;
19183;SDS011;9724;51.194;6.856;2023-08-06T00:52:10;3.10;;;2.90;;
19183;SDS011;9724;51.194;6.856;2023-08-06T00:54:38;5.53;;;2.90;;
19183;SDS011;9724;51.194;6.856;2023-08-06T00:57:05;4.97;;;3.00;;
19183;SDS011;9724;51.194;6.856;2023-08-06T00:59:33;3.80;;;2.90;;
19183;SDS011;9724;51.194;6.856;2023-08-06T01:02:01;5.03;;;3.00;;
19183;SDS011;9724;51.194;6.856;2023-08-06T01:04:27;6.93;;;3.10;;
19183;SDS011;9724;51.194;6.856;2023-08-06T01:06:56;5.37;;;3.03;;
19183;SDS011;9724;51.194;6.856;2023-08-06T01:09:30;4.00;;;3.20;;
19183;SDS011;9724;51.194;6.856;2023-08-06T01:12:05;3.87;;;3.00;;
19183;SDS011;9724;51.194;6.856;2023-08-06T01:14:36;3.27;;;2.70;;
19183;SDS011;9724;51.194;6.856;2023-08-06T01:17:05;3.60;;;2.90;;
19183;SDS011;9724;51.194;6.856;2023-08-06T01:19:31;3.33;;;2.87;;
19183;SDS011;9724;51.194;6.856;2023-08-06T01:21:58;3.03;;;2.73;;
19183;SDS011;9724;51.194;6.856;2023-08-06T01:24:24;2.90;;;2.70;;
19183;SDS011;9724;51.194;6.856;2023-08-06T01:26:53;4.60;;;2.90;;
19183;SDS011;9724;51.194;6.856;2023-08-06T01:29:24;4.57;;;2.97;;
19183;SDS011;9724;51.194;6.856;2023-08-06T01:31:52;3.43;;;2.73;;
19183;SDS011;9724;51.194;6.856;2023-08-06T01:34:21;3.37;;;2.80;;
19183;SDS011;9724;51.194;6.856;2023-08-06T01:36:48;4.67;;;3.00;;
19183;SDS011;9724;51.194;6.856;2023-08-06T01:39:15;3.60;;;2.60;;
19183;SDS011;9724;51.194;6.856;2023-08-06T01:41:42;6.57;;;3.17;;
19183;SDS011;9724;51.194;6.856;2023-08-06T01:44:08;4.00;;;2.90;;
19183;SDS011;9724;51.194;6.856;2023-08-06T01:46:34;4.67;;;3.20;;
19183;SDS011;9724;51.194;6.856;2023-08-06T01:49:02;5.13;;;2.67;;
19183;SDS011;9724;51.194;6.856;2023-08-06T01:51:28;6.93;;;3.17;;
19183;SDS011;9724;51.194;6.856;2023-08-06T01:53:54;4.13;;;2.73;;
19183;SDS011;9724;51.194;6.856;2023-08-06T01:56:21;4.63;;;3.00;;
19183;SDS011;9724;51.194;6.856;2023-08-06T01:58:47;3.17;;;2.87;;
19183;SDS011;9724;51.194;6.856;2023-08-06T02:01:14;5.33;;;3.23;;
19183;SDS011;9724;51.194;6.856;2023-08-06T02:03:41;7.13;;;3.83;;
19183;SDS011;9724;51.194;6.856;2023-08-06T02:06:07;3.70;;;3.00;;
19183;SDS011;9724;51.194;6.856;2023-08-06T02:08:33;5.17;;;3.10;;
19183;SDS011;9724;51.194;6.856;2023-08-06T02:11:00;4.97;;;3.17;;
19183;SDS011;9724;51.194;6.856;2023-08-06T02:13:28;4.43;;;3.07;;
19183;SDS011;9724;51.194;6.856;2023-08-06T02:15:54;3.50;;;3.20;;
19183;SDS011;9724;51.194;6.856;2023-08-06T02:18:20;4.80;;;3.17;;
19183;SDS011;9724;51.194;6.856;2023-08-06T02:20:54;7.80;;;3.03;;
19183;SDS011;9724;51.194;6.856;2023-08-06T02:23:22;4.63;;;3.27;;
19183;SDS011;9724;51.194;6.856;2023-08-06T02:25:48;7.10;;;3.03;;
19183;SDS011;9724;51.194;6.856;2023-08-06T02:28:14;4.23;;;3.03;;
19183;SDS011;9724;51.194;6.856;2023-08-06T02:30:49;4.07;;;3.00;;
19183;SDS011;9724;51.194;6.856;2023-08-06T02:33:16;5.97;;;3.10;;
19183;SDS011;9724;51.194;6.856;2023-08-06T02:35:42;9.07;;;2.80;;
19183;SDS011;9724;51.194;6.856;2023-08-06T02:38:08;6.33;;;2.93;;
19183;SDS011;9724;51.194;6.856;2023-08-06T02:40:35;4.37;;;3.40;;
19183;SDS011;9724;51.194;6.856;2023-08-06T02:43:01;2.97;;;2.77;;
19183;SDS011;9724;51.194;6.856;2023-08-06T02:45:28;6.20;;;2.80;;
19183;SDS011;9724;51.194;6.856;2023-08-06T02:47:55;7.03;;;3.27;;
19183;SDS011;9724;51.194;6.856;2023-08-06T02:50:21;7.53;;;2.97;;
19183;SDS011;9724;51.194;6.856;2023-08-06T02:52:48;3.17;;;2.90;;
19183;SDS011;9724;51.194;6.856;2023-08-06T02:55:15;4.40;;;3.13;;
19183;SDS011;9724;51.194;6.856;2023-08-06T02:57:41;4.97;;;2.80;;
19183;SDS011;9724;51.194;6.856;2023-08-06T03:00:08;3.67;;;3.00;;
19183;SDS011;9724;51.194;6.856;2023-08-06T03:02:34;3.07;;;2.83;;
19183;SDS011;9724;51.194;6.856;2023-08-06T03:05:01;4.53;;;2.90;;
19183;SDS011;9724;51.194;6.856;2023-08-06T03:07:29;5.03;;;2.70;;
19183;SDS011;9724;51.194;6.856;2023-08-06T03:09:55;4.60;;;2.73;;
19183;SDS011;9724;51.194;6.856;2023-08-06T03:12:21;5.43;;;2.90;;
19183;SDS011;9724;51.194;6.856;2023-08-06T03:14:47;2.97;;;2.73;;
19183;SDS011;9724;51.194;6.856;2023-08-06T03:17:13;4.13;;;3.20;;
19183;SDS011;9724;51.194;6.856;2023-08-06T03:19:40;4.10;;;2.87;;
19183;SDS011;9724;51.194;6.856;2023-08-06T03:22:07;5.47;;;3.00;;
19183;SDS011;9724;51.194;6.856;2023-08-06T03:24:33;7.77;;;3.20;;
19183;SDS011;9724;51.194;6.856;2023-08-06T03:27:00;3.00;;;2.70;;
19183;SDS011;9724;51.194;6.856;2023-08-06T03:29:26;5.33;;;2.80;;
19183;SDS011;9724;51.194;6.856;2023-08-06T03:31:52;2.97;;;2.77;;
19183;SDS011;9724;51.194;6.856;2023-08-06T03:34:19;3.77;;;2.80;;
19183;SDS011;9724;51.194;6.856;2023-08-06T03:36:45;4.17;;;2.83;;
19183;SDS011;9724;51.194;6.856;2023-08-06T03:39:12;5.23;;;2.97;;
19183;SDS011;9724;51.194;6.856;2023-08-06T03:41:39;6.00;;;3.33;;
19183;SDS011;9724;51.194;6.856;2023-08-06T03:44:05;5.40;;;3.00;;
19183;SDS011;9724;51.194;6.856;2023-08-06T03:46:31;3.13;;;2.83;;
19183;SDS011;9724;51.194;6.856;2023-08-06T03:48:59;3.97;;;2.60;;
19183;SDS011;9724;51.194;6.856;2023-08-06T03:51:25;5.60;;;2.90;;
19183;SDS011;9724;51.194;6.856;2023-08-06T03:53:51;4.73;;;3.00;;
19183;SDS011;9724;51.194;6.856;2023-08-06T03:56:18;5.20;;;3.13;;
19183;SDS011;9724;51.194;6.856;2023-08-06T03:58:44;4.43;;;3.00;;
19183;SDS011;9724;51.194;6.856;2023-08-06T04:01:11;4.03;;;2.87;;
19183;SDS011;9724;51.194;6.856;2023-08-06T04:03:37;6.80;;;2.63;;
19183;SDS011;9724;51.194;6.856;2023-08-06T04:06:03;5.03;;;2.67;;
19183;SDS011;9724;51.194;6.856;2023-08-06T04:08:30;7.73;;;2.57;;
19183;SDS011;9724;51.194;6.856;2023-08-06T04:10:57;2.77;;;2.67;;
19183;SDS011;9724;51.194;6.856;2023-08-06T04:13:24;11.03;;;3.17;;
19183;SDS011;9724;51.194;6.856;2023-08-06T04:15:50;3.53;;;2.83;;
19183;SDS011;9724;51.194;6.856;2023-08-06T04:18:16;4.00;;;2.50;;
19183;SDS011;9724;51.194;6.856;2023-08-06T04:20:43;4.30;;;2.63;;
19183;SDS011;9724;51.194;6.856;2023-08-06T04:23:10;6.13;;;2.40;;
19183;SDS011;9724;51.194;6.856;2023-08-06T04:25:36;3.90;;;2.67;;
19183;SDS011;9724;51.194;6.856;2023-08-06T04:28:02;2.83;;;2.63;;
19183;SDS011;9724;51.194;6.856;2023-08-06T04:30:30;3.47;;;2.60;;
19183;SDS011;9724;51.194;6.856;2023-08-06T04:32:58;3.73;;;2.63;;
19183;SDS011;9724;51.194;6.856;2023-08-06T04:35:24;8.77;;;3.93;;
19183;SDS011;9724;51.194;6.856;2023-08-06T04:37:50;4.93;;;2.80;;
19183;SDS011;9724;51.194;6.856;2023-08-06T04:40:16;6.27;;;2.50;;
19183;SDS011;9724;51.194;6.856;2023-08-06T04:42:43;4.80;;;2.77;;
19183;SDS011;9724;51.194;6.856;2023-08-06T04:45:09;6.87;;;2.90;;
19183;SDS011;9724;51.194;6.856;2023-08-06T04:47:36;4.80;;;2.73;;
19183;SDS011;9724;51.194;6.856;2023-08-06T04:50:03;4.07;;;2.60;;
19183;SDS011;9724;51.194;6.856;2023-08-06T04:52:29;3.40;;;2.83;;
19183;SDS011;9724;51.194;6.856;2023-08-06T04:54:57;5.80;;;2.77;;
19183;SDS011;9724;51.194;6.856;2023-08-06T04:57:24;5.67;;;2.70;;
19183;SDS011;9724;51.194;6.856;2023-08-06T04:59:50;6.77;;;2.83;;
19183;SDS011;9724;51.194;6.856;2023-08-06T05:02:16;6.07;;;2.50;;
19183;SDS011;9724;51.194;6.856;2023-08-06T05:04:43;4.53;;;2.57;;
19183;SDS011;9724;51.194;6.856;2023-08-06T05:07:10;3.60;;;2.47;;
19183;SDS011;9724;51.194;6.856;2023-08-06T05:09:36;3.73;;;2.60;;
19183;SDS011;9724;51.194;6.856;2023-08-06T05:12:03;2.67;;;2.47;;
19183;SDS011;9724;51.194;6.856;2023-08-06T05:14:30;4.80;;;2.77;;
19183;SDS011;9724;51.194;6.856;2023-08-06T05:16:56;4.73;;;2.90;;
19183;SDS011;9724;51.194;6.856;2023-08-06T05:19:23;6.87;;;3.00;;
19183;SDS011;9724;51.194;6.856;2023-08-06T05:21:50;8.17;;;2.70;;
19183;SDS011;9724;51.194;6.856;2023-08-06T05:24:16;3.07;;;2.53;;
19183;SDS011;9724;51.194;6.856;2023-08-06T05:26:43;4.07;;;2.60;;
19183;SDS011;9724;51.194;6.856;2023-08-06T05:29:12;2.60;;;2.40;;
19183;SDS011;9724;51.194;6.856;2023-08-06T05:31:38;4.73;;;2.60;;
19183;SDS011;9724;51.194;6.856;2023-08-06T05:34:04;3.07;;;2.60;;
19183;SDS011;9724;51.194;6.856;2023-08-06T05:36:30;3.43;;;2.87;;
19183;SDS011;9724;51.194;6.856;2023-08-06T05:38:57;3.17;;;2.63;;
19183;SDS011;9724;51.194;6.856;2023-08-06T05:41:24;3.40;;;2.70;;
19183;SDS011;9724;51.194;6.856;2023-08-06T05:43:50;6.77;;;2.60;;
19183;SDS011;9724;51.194;6.856;2023-08-06T05:46:16;3.23;;;2.30;;
19183;SDS011;9724;51.194;6.856;2023-08-06T05:48:43;4.37;;;2.30;;
19183;SDS011;9724;51.194;6.856;2023-08-06T05:51:09;3.20;;;2.03;;
19183;SDS011;9724;51.194;6.856;2023-08-06T05:53:38;3.60;;;2.20;;
19183;SDS011;9724;51.194;6.856;2023-08-06T05:56:05;2.87;;;2.00;;
19183;SDS011;9724;51.194;6.856;2023-08-06T05:58:31;3.37;;;1.90;;
19183;SDS011;9724;51.194;6.856;2023-08-06T06:00:57;4.07;;;2.37;;
19183;SDS011;9724;51.194;6.856;2023-08-06T06:03:23;3.53;;;1.93;;
19183;SDS011;9724;51.194;6.856;2023-08-06T06:05:50;4.57;;;2.10;;
19183;SDS011;9724;51.194;6.856;2023-08-06T06:08:16;3.87;;;1.90;;
19183;SDS011;9724;51.194;6.856;2023-08-06T06:10:42;4.43;;;2.37;;
19183;SDS011;9724;51.194;6.856;2023-08-06T06:13:09;6.10;;;1.77;;
19183;SDS011;9724;51.194;6.856;2023-08-06T06:15:36;6.00;;;2.07;;
19183;SDS011;9724;51.194;6.856;2023-08-06T06:18:02;4.00;;;1.90;;
19183;SDS011;9724;51.194;6.856;2023-08-06T06:20:31;1.73;;;1.63;;
19183;SDS011;9724;51.194;6.856;2023-08-06T06:22:57;2.10;;;1.70;;
19183;SDS011;9724;51.194;6.856;2023-08-06T06:25:24;3.53;;;1.63;;
19183;SDS011;9724;51.194;6.856;2023-08-06T06:27:50;1.93;;;1.83;;
19183;SDS011;9724;51.194;6.856;2023-08-06T06:30:17;2.10;;;1.80;;
19183;SDS011;9724;51.194;6.856;2023-08-06T06:32:43;2.00;;;1.80;;
19183;SDS011;9724;51.194;6.856;2023-08-06T06:35:10;2.33;;;1.67;;
19183;SDS011;9724;51.194;6.856;2023-08-06T06:37:36;4.53;;;1.90;;
19183;SDS011;9724;51.194;6.856;2023-08-06T06:40:02;1.70;;;1.60;;
19183;SDS011;9724;51.194;6.856;2023-08-06T06:42:29;4.27;;;1.70;;
19183;SDS011;9724;51.194;6.856;2023-08-06T06:44:55;1.87;;;1.70;;
19183;SDS011;9724;51.194;6.856;2023-08-06T06:47:22;2.93;;;1.77;;
19183;SDS011;9724;51.194;6.856;2023-08-06T06:49:49;3.03;;;1.70;;
19183;SDS011;9724;51.194;6.856;2023-08-06T06:52:15;1.73;;;1.63;;
19183;SDS011;9724;51.194;6.856;2023-08-06T06:54:42;3.80;;;1.90;;
19183;SDS011;9724;51.194;6.856;2023-08-06T06:57:09;2.03;;;1.93;;
19183;SDS011;9724;51.194;6.856;2023-08-06T06:59:35;2.10;;;1.97;;
19183;SDS011;9724;51.194;6.856;2023-08-06T07:02:04;2.10;;;1.80;;
19183;SDS011;9724;51.194;6.856;2023-08-06T07:04:31;1.70;;;1.60;;
19183;SDS011;9724;51.194;6.856;2023-08-06T07:06:57;2.90;;;2.07;;
19183;SDS011;9724;51.194;6.856;2023-08-06T07:09:23;4.03;;;1.80;;
19183;SDS011;9724;51.194;6.856;2023-08-06T07:11:49;3.13;;;1.80;;
19183;SDS011;9724;51.194;6.856;2023-08-06T07:14:16;3.27;;;1.70;;
19183;SDS011;9724;51.194;6.856;2023-08-06T07:16:42;1.77;;;1.67;;
19183;SDS011;9724;51.194;6.856;2023-08-06T07:19:09;3.03;;;1.93;;
19183;SDS011;9724;51.194;6.856;2023-08-06T07:21:36;4.43;;;2.10;;
19183;SDS011;9724;51.194;6.856;2023-08-06T07:24:02;8.33;;;2.00;;
19183;SDS011;9724;51.194;6.856;2023-08-06T07:26:29;4.40;;;2.07;;
19183;SDS011;9724;51.194;6.856;2023-08-06T07:28:55;1.93;;;1.83;;
19183;SDS011;9724;51.194;6.856;2023-08-06T07:31:22;2.97;;;1.73;;
19183;SDS011;9724;51.194;6.856;2023-08-06T07:33:48;2.77;;;1.77;;
19183;SDS011;9724;51.194;6.856;2023-08-06T07:36:15;3.17;;;1.77;;
19183;SDS011;9724;51.194;6.856;2023-08-06T07:38:42;4.67;;;2.17;;
19183;SDS011;9724;51.194;6.856;2023-08-06T07:41:08;2.27;;;1.53;;
19183;SDS011;9724;51.194;6.856;2023-08-06T07:43:35;3.23;;;1.80;;
19183;SDS011;9724;51.194;6.856;2023-08-06T07:46:01;1.80;;;1.70;;
19183;SDS011;9724;51.194;6.856;2023-08-06T07:48:28;3.10;;;1.90;;
19183;SDS011;9724;51.194;6.856;2023-08-06T07:50:55;5.03;;;1.97;;
19183;SDS011;9724;51.194;6.856;2023-08-06T07:53:21;2.13;;;1.83;;
19183;SDS011;9724;51.194;6.856;2023-08-06T07:55:49;2.83;;;1.70;;
19183;SDS011;9724;51.194;6.856;2023-08-06T07:58:16;2.13;;;1.90;;
19183;SDS011;9724;51.194;6.856;2023-08-06T08:00:43;3.67;;;1.70;;
19183;SDS011;9724;51.194;6.856;2023-08-06T08:03:11;3.40;;;1.80;;
19183;SDS011;9724;51.194;6.856;2023-08-06T08:05:38;1.80;;;1.70;;
19183;SDS011;9724;51.194;6.856;2023-08-06T08:08:04;1.93;;;1.67;;
19183;SDS011;9724;51.194;6.856;2023-08-06T08:10:30;4.77;;;1.97;;
19183;SDS011;9724;51.194;6.856;2023-08-06T08:12:57;2.87;;;1.90;;
19183;SDS011;9724;51.194;6.856;2023-08-06T08:15:24;1.93;;;1.70;;
19183;SDS011;9724;51.194;6.856;2023-08-06T08:17:51;2.63;;;1.80;;
19183;SDS011;9724;51.194;6.856;2023-08-06T08:20:18;1.80;;;1.70;;
19183;SDS011;9724;51.194;6.856;2023-08-06T08:22:44;2.70;;;1.80;;
19183;SDS011;9724;51.194;6.856;2023-08-06T08:25:10;1.77;;;1.70;;
19183;SDS011;9724;51.194;6.856;2023-08-06T08:27:37;3.23;;;1.80;;
19183;SDS011;9724;51.194;6.856;2023-08-06T08:30:04;2.03;;;1.50;;
19183;SDS011;9724;51.194;6.856;2023-08-06T08:32:32;1.50;;;1.40;;
19183;SDS011;9724;51.194;6.856;2023-08-06T08:34:58;1.53;;;1.53;;
19183;SDS011;9724;51.194;6.856;2023-08-06T08:37:24;3.40;;;1.83;;
19183;SDS011;9724;51.194;6.856;2023-08-06T08:39:50;2.50;;;2.30;;
19183;SDS011;9724;51.194;6.856;2023-08-06T08:42:17;3.07;;;2.80;;
19183;SDS011;9724;51.194;6.856;2023-08-06T08:44:44;3.13;;;2.70;;
19183;SDS011;9724;51.194;6.856;2023-08-06T08:47:12;3.20;;;2.90;;
19183;SDS011;9724;51.194;6.856;2023-08-06T08:49:38;3.27;;;3.00;;
19183;SDS011;9724;51.194;6.856;2023-08-06T08:52:06;4.20;;;3.17;;
19183;SDS011;9724;51.194;6.856;2023-08-06T08:54:35;3.43;;;3.13;;
19183;SDS011;9724;51.194;6.856;2023-08-06T08:57:04;5.23;;;3.30;;
19183;SDS011;9724;51.194;6.856;2023-08-06T08:59:33;7.73;;;3.57;;
19183;SDS011;9724;51.194;6.856;2023-08-06T09:02:00;3.87;;;3.07;;
19183;SDS011;9724;51.194;6.856;2023-08-06T09:04:27;3.57;;;3.30;;
19183;SDS011;9724;51.194;6.856;2023-08-06T09:07:00;3.20;;;3.00;;
19183;SDS011;9724;51.194;6.856;2023-08-06T09:09:27;2.93;;;2.63;;
19183;SDS011;9724;51.194;6.856;2023-08-06T09:11:57;2.90;;;2.70;;
19183;SDS011;9724;51.194;6.856;2023-08-06T09:14:26;2.60;;;2.40;;
19183;SDS011;9724;51.194;6.856;2023-08-06T09:16:53;2.57;;;2.43;;
19183;SDS011;9724;51.194;6.856;2023-08-06T09:19:20;2.70;;;1.80;;
19183;SDS011;9724;51.194;6.856;2023-08-06T09:21:48;2.30;;;2.10;;
19183;SDS011;9724;51.194;6.856;2023-08-06T09:24:17;2.43;;;2.00;;
19183;SDS011;9724;51.194;6.856;2023-08-06T09:26:44;2.93;;;2.17;;
19183;SDS011;9724;51.194;6.856;2023-08-06T09:29:11;3.30;;;1.90;;
19183;SDS011;9724;51.194;6.856;2023-08-06T09:31:41;1.90;;;1.80;;
19183;SDS011;9724;51.194;6.856;2023-08-06T09:34:11;2.47;;;1.70;;
19183;SDS011;9724;51.194;6.856;2023-08-06T09:36:39;2.37;;;1.70;;
19183;SDS011;9724;51.194;6.856;2023-08-06T09:39:12;1.73;;;1.63;;
19183;SDS011;9724;51.194;6.856;2023-08-06T09:41:39;1.93;;;1.73;;
19183;SDS011;9724;51.194;6.856;2023-08-06T09:44:05;2.33;;;1.70;;
19183;SDS011;9724;51.194;6.856;2023-08-06T09:46:37;3.07;;;2.00;;
19183;SDS011;9724;51.194;6.856;2023-08-06T09:49:03;3.77;;;2.00;;
19183;SDS011;9724;51.194;6.856;2023-08-06T09:51:31;2.37;;;2.10;;
19183;SDS011;9724;51.194;6.856;2023-08-06T09:53:57;4.80;;;2.73;;
19183;SDS011;9724;51.194;6.856;2023-08-06T09:56:26;4.03;;;2.60;;
19183;SDS011;9724;51.194;6.856;2023-08-06T09:58:52;4.80;;;2.80;;
19183;SDS011;9724;51.194;6.856;2023-08-06T10:01:20;3.37;;;3.07;;
19183;SDS011;9724;51.194;6.856;2023-08-06T10:03:47;5.20;;;2.93;;
19183;SDS011;9724;51.194;6.856;2023-08-06T10:06:13;7.33;;;3.27;;
19183;SDS011;9724;51.194;6.856;2023-08-06T10:08:39;6.23;;;3.20;;
19183;SDS011;9724;51.194;6.856;2023-08-06T10:11:07;12.43;;;3.53;;
19183;SDS011;9724;51.194;6.856;2023-08-06T10:13:35;4.97;;;3.37;;
19183;SDS011;9724;51.194;6.856;2023-08-06T10:16:01;5.07;;;3.10;;
19183;SDS011;9724;51.194;6.856;2023-08-06T10:18:32;4.97;;;2.90;;
19183;SDS011;9724;51.194;6.856;2023-08-06T10:20:59;3.13;;;2.80;;
19183;SDS011;9724;51.194;6.856;2023-08-06T10:23:32;7.40;;;2.70;;
19183;SDS011;9724;51.194;6.856;2023-08-06T10:26:00;5.13;;;2.83;;
19183;SDS011;9724;51.194;6.856;2023-08-06T10:28:31;4.43;;;2.43;;
19183;SDS011;9724;51.194;6.856;2023-08-06T10:31:00;4.70;;;2.37;;
19183;SDS011;9724;51.194;6.856;2023-08-06T10:33:30;2.83;;;2.53;;
19183;SDS011;9724;51.194;6.856;2023-08-06T10:36:06;3.57;;;2.30;;
19183;SDS011;9724;51.194;6.856;2023-08-06T10:38:35;2.40;;;1.90;;
19183;SDS011;9724;51.194;6.856;2023-08-06T10:41:03;1.57;;;1.47;;
19183;SDS011;9724;51.194;6.856;2023-08-06T10:43:30;4.50;;;1.60;;
19183;SDS011;9724;51.194;6.856;2023-08-06T10:45:58;1.00;;;1.00;;
19183;SDS011;9724;51.194;6.856;2023-08-06T10:48:29;1.37;;;1.27;;
19183;SDS011;9724;51.194;6.856;2023-08-06T10:50:56;1.00;;;1.00;;
19183;SDS011;9724;51.194;6.856;2023-08-06T10:53:22;0.70;;;0.70;;
19183;SDS011;9724;51.194;6.856;2023-08-06T10:55:49;0.60;;;0.60;;
19183;SDS011;9724;51.194;6.856;2023-08-06T10:58:15;1.83;;;0.80;;
19183;SDS011;9724;51.194;6.856;2023-08-06T11:00:42;1.40;;;0.80;;
19183;SDS011;9724;51.194;6.856;2023-08-06T11:03:08;1.00;;;1.00;;
19183;SDS011;9724;51.194;6.856;2023-08-06T11:05:35;1.07;;;1.07;;
19183;SDS011;9724;51.194;6.856;2023-08-06T11:08:02;1.10;;;1.10;;
19183;SDS011;9724;51.194;6.856;2023-08-06T11:10:28;1.30;;;1.30;;
19183;SDS011;9724;51.194;6.856;2023-08-06T11:12:55;1.80;;;1.70;;
19183;SDS011;9724;51.194;6.856;2023-08-06T11:15:26;1.47;;;1.30;;
19183;SDS011;9724;51.194;6.856;2023-08-06T11:17:53;5.20;;;1.27;;
19183;SDS011;9724;51.194;6.856;2023-08-06T11:20:19;1.60;;;1.40;;
19183;SDS011;9724;51.194;6.856;2023-08-06T11:22:47;1.67;;;1.20;;
19183;SDS011;9724;51.194;6.856;2023-08-06T11:25:13;1.20;;;1.20;;
19183;SDS011;9724;51.194;6.856;2023-08-06T11:27:40;1.50;;;1.40;;
19183;SDS011;9724;51.194;6.856;2023-08-06T11:30:06;1.77;;;1.67;;
19183;SDS011;9724;51.194;6.856;2023-08-06T11:32:33;1.90;;;1.80;;
19183;SDS011;9724;51.194;6.856;2023-08-06T11:35:11;3.20;;;1.80;;
19183;SDS011;9724;51.194;6.856;2023-08-06T11:37:37;2.23;;;2.10;;
19183;SDS011;9724;51.194;6.856;2023-08-06T11:40:07;2.90;;;2.03;;
19183;SDS011;9724;51.194;6.856;2023-08-06T11:42:35;2.63;;;2.50;;
19183;SDS011;9724;51.194;6.856;2023-08-06T11:45:02;2.97;;;2.50;;
19183;SDS011;9724;51.194;6.856;2023-08-06T11:47:29;3.13;;;2.80;;
19183;SDS011;9724;51.194;6.856;2023-08-06T11:49:56;7.17;;;3.80;;
19183;SDS011;9724;51.194;6.856;2023-08-06T11:52:23;6.27;;;3.87;;
19183;SDS011;9724;51.194;6.856;2023-08-06T11:54:59;7.53;;;3.80;;
19183;SDS011;9724;51.194;6.856;2023-08-06T11:57:27;6.50;;;4.10;;
19183;SDS011;9724;51.194;6.856;2023-08-06T11:59:58;7.20;;;4.20;;
19183;SDS011;9724;51.194;6.856;2023-08-06T12:02:30;11.10;;;4.23;;
19183;SDS011;9724;51.194;6.856;2023-08-06T12:05:00;5.07;;;4.37;;
19183;SDS011;9724;51.194;6.856;2023-08-06T12:07:28;6.50;;;4.07;;
19183;SDS011;9724;51.194;6.856;2023-08-06T12:09:54;7.00;;;4.00;;
19183;SDS011;9724;51.194;6.856;2023-08-06T12:12:20;6.17;;;3.73;;
19183;SDS011;9724;51.194;6.856;2023-08-06T12:14:47;10.20;;;3.63;;
19183;SDS011;9724;51.194;6.856;2023-08-06T12:17:14;6.10;;;3.50;;
19183;SDS011;9724;51.194;6.856;2023-08-06T12:19:40;7.87;;;4.03;;
19183;SDS011;9724;51.194;6.856;2023-08-06T12:22:06;6.07;;;3.77;;
19183;SDS011;9724;51.194;6.856;2023-08-06T12:24:33;8.20;;;3.90;;
19183;SDS011;9724;51.194;6.856;2023-08-06T12:26:59;9.50;;;3.80;;
19183;SDS011;9724;51.194;6.856;2023-08-06T12:29:27;7.30;;;3.50;;
19183;SDS011;9724;51.194;6.856;2023-08-06T12:31:54;5.27;;;3.37;;
19183;SDS011;9724;51.194;6.856;2023-08-06T12:34:21;9.67;;;3.77;;
19183;SDS011;9724;51.194;6.856;2023-08-06T12:36:52;5.70;;;3.40;;
19183;SDS011;9724;51.194;6.856;2023-08-06T12:39:18;7.20;;;3.60;;
19183;SDS011;9724;51.194;6.856;2023-08-06T12:41:45;6.77;;;3.30;;
19183;SDS011;9724;51.194;6.856;2023-08-06T12:44:11;5.00;;;3.60;;
19183;SDS011;9724;51.194;6.856;2023-08-06T12:46:37;6.70;;;3.23;;
19183;SDS011;9724;51.194;6.856;2023-08-06T12:49:04;4.90;;;3.50;;
19183;SDS011;9724;51.194;6.856;2023-08-06T12:51:30;4.80;;;3.50;;
19183;SDS011;9724;51.194;6.856;2023-08-06T12:53:58;5.10;;;3.53;;
19183;SDS011;9724;51.194;6.856;2023-08-06T12:56:26;4.53;;;3.53;;
19183;SDS011;9724;51.194;6.856;2023-08-06T12:58:52;5.43;;;3.50;;
19183;SDS011;9724;51.194;6.856;2023-08-06T13:01:19;5.63;;;3.53;;
19183;SDS011;9724;51.194;6.856;2023-08-06T13:03:45;5.60;;;3.60;;
19183;SDS011;9724;51.194;6.856;2023-08-06T13:06:12;4.77;;;3.37;;
19183;SDS011;9724;51.194;6.856;2023-08-06T13:08:38;5.83;;;3.10;;
19183;SDS011;9724;51.194;6.856;2023-08-06T13:11:04;6.40;;;3.53;;
19183;SDS011;9724;51.194;6.856;2023-08-06T13:13:31;4.53;;;3.27;;
19183;SDS011;9724;51.194;6.856;2023-08-06T13:15:57;3.07;;;2.83;;
19183;SDS011;9724;51.194;6.856;2023-08-06T13:18:23;5.97;;;3.13;;
19183;SDS011;9724;51.194;6.856;2023-08-06T13:20:51;3.10;;;2.40;;
19183;SDS011;9724;51.194;6.856;2023-08-06T13:23:20;8.63;;;2.20;;
19183;SDS011;9724;51.194;6.856;2023-08-06T13:25:46;7.33;;;2.20;;
19183;SDS011;9724;51.194;6.856;2023-08-06T13:28:13;2.10;;;1.90;;
19183;SDS011;9724;51.194;6.856;2023-08-06T13:30:39;2.20;;;2.10;;
19183;SDS011;9724;51.194;6.856;2023-08-06T13:33:07;3.97;;;2.03;;
19183;SDS011;9724;51.194;6.856;2023-08-06T13:35:34;2.23;;;1.80;;
19183;SDS011;9724;51.194;6.856;2023-08-06T13:38:00;3.40;;;1.77;;
19183;SDS011;9724;51.194;6.856;2023-08-06T13:40:29;2.07;;;1.90;;
19183;SDS011;9724;51.194;6.856;2023-08-06T13:42:55;3.67;;;2.30;;
19183;SDS011;9724;51.194;6.856;2023-08-06T13:45:22;2.87;;;2.00;;
19183;SDS011;9724;51.194;6.856;2023-08-06T13:47:50;2.30;;;2.10;;
19183;SDS011;9724;51.194;6.856;2023-08-06T13:50:16;3.20;;;2.07;;
19183;SDS011;9724;51.194;6.856;2023-08-06T13:52:44;7.30;;;2.30;;
19183;SDS011;9724;51.194;6.856;2023-08-06T13:55:10;5.97;;;2.33;;
19183;SDS011;9724;51.194;6.856;2023-08-06T13:57:37;4.40;;;2.30;;
19183;SDS011;9724;51.194;6.856;2023-08-06T14:00:04;2.47;;;2.27;;
19183;SDS011;9724;51.194;6.856;2023-08-06T14:02:32;4.80;;;2.40;;
19183;SDS011;9724;51.194;6.856;2023-08-06T14:04:58;7.13;;;2.83;;
19183;SDS011;9724;51.194;6.856;2023-08-06T14:07:24;5.33;;;2.27;;
19183;SDS011;9724;51.194;6.856;2023-08-06T14:09:51;4.60;;;2.60;;
19183;SDS011;9724;51.194;6.856;2023-08-06T14:12:17;6.23;;;2.80;;
19183;SDS011;9724;51.194;6.856;2023-08-06T14:14:44;3.93;;;2.50;;
19183;SDS011;9724;51.194;6.856;2023-08-06T14:17:10;5.03;;;2.90;;
19183;SDS011;9724;51.194;6.856;2023-08-06T14:19:36;2.70;;;2.50;;
19183;SDS011;9724;51.194;6.856;2023-08-06T14:22:03;2.97;;;2.33;;
19183;SDS011;9724;51.194;6.856;2023-08-06T14:24:29;4.17;;;2.20;;
19183;SDS011;9724;51.194;6.856;2023-08-06T14:26:55;2.60;;;2.40;;
19183;SDS011;9724;51.194;6.856;2023-08-06T14:29:21;2.73;;;2.37;;
19183;SDS011;9724;51.194;6.856;2023-08-06T14:31:49;2.67;;;2.47;;
19183;SDS011;9724;51.194;6.856;2023-08-06T14:34:15;3.07;;;2.17;;
19183;SDS011;9724;51.194;6.856;2023-08-06T14:36:41;3.30;;;2.10;;
19183;SDS011;9724;51.194;6.856;2023-08-06T14:39:07;3.93;;;2.23;;
19183;SDS011;9724;51.194;6.856;2023-08-06T14:41:34;3.50;;;2.20;;
19183;SDS011;9724;51.194;6.856;2023-08-06T14:44:00;2.40;;;2.20;;
19183;SDS011;9724;51.194;6.856;2023-08-06T14:46:26;1.90;;;1.80;;
19183;SDS011;9724;51.194;6.856;2023-08-06T14:48:53;3.90;;;2.27;;
19183;SDS011;9724;51.194;6.856;2023-08-06T14:51:19;3.47;;;1.60;;
19183;SDS011;9724;51.194;6.856;2023-08-06T14:53:46;2.13;;;1.90;;
19183;SDS011;9724;51.194;6.856;2023-08-06T14:56:12;3.37;;;2.03;;
19183;SDS011;9724;51.194;6.856;2023-08-06T14:58:38;3.17;;;1.87;;